sensor_id;sensor_type;location;lat;lon;timestamp;pressure;altitude;pressure_sealevel;temperature
67509;BMP280;54354;44.724;11.284;2023-05-07T00:01:42;101460.91;;;20.45
67509;BMP280;54354;44.724;11.284;2023-05-07T00:04:08;101462.38;;;20.46
67509;BMP280;54354;44.724;11.284;2023-05-07T00:06:33;101453.56;;;20.45
67509;BMP280;54354;44.724;11.284;2023-05-07T00:08:59;101451.63;;;20.46
67509;BMP280;54354;44.724;11.284;2023-05-07T00:11:26;101456.69;;;20.43
67509;BMP280;54354;44.724;11.284;2023-05-07T00:13:52;101455.41;;;20.39
67509;BMP280;54354;44.724;11.284;2023-05-07T00:16:17;101454.56;;;20.33
67509;BMP280;54354;44.724;11.284;2023-05-07T00:18:43;101457.84;;;20.28
67509;BMP280;54354;44.724;11.284;2023-05-07T00:21:08;101462.81;;;20.20
67509;BMP280;54354;44.724;11.284;2023-05-07T00:23:34;101450.44;;;20.13
67509;BMP280;54354;44.724;11.284;2023-05-07T00:25:59;101460.16;;;20.11
67509;BMP280;54354;44.724;11.284;2023-05-07T00:28:25;101462.84;;;20.11
67509;BMP280;54354;44.724;11.284;2023-05-07T00:30:51;101464.38;;;20.12
67509;BMP280;54354;44.724;11.284;2023-05-07T00:33:16;101466.56;;;20.13
67509;BMP280;54354;44.724;11.284;2023-05-07T00:35:43;101468.25;;;20.11
67509;BMP280;54354;44.724;11.284;2023-05-07T00:38:08;101465.25;;;20.09
67509;BMP280;54354;44.724;11.284;2023-05-07T00:40:34;101458.13;;;20.06
67509;BMP280;54354;44.724;11.284;2023-05-07T00:43:00;101463.63;;;20.02
67509;BMP280;54354;44.724;11.284;2023-05-07T00:45:26;101456.22;;;19.97
67509;BMP280;54354;44.724;11.284;2023-05-07T00:47:57;101453.69;;;19.94
67509;BMP280;54354;44.724;11.284;2023-05-07T00:50:23;101458.31;;;19.93
67509;BMP280;54354;44.724;11.284;2023-05-07T00:52:49;101458.31;;;19.93
67509;BMP280;54354;44.724;11.284;2023-05-07T00:55:15;101464.88;;;19.92
67509;BMP280;54354;44.724;11.284;2023-05-07T00:57:41;101465.78;;;19.89
67509;BMP280;54354;44.724;11.284;2023-05-07T01:00:08;101460.09;;;19.87
67509;BMP280;54354;44.724;11.284;2023-05-07T01:02:37;101459.84;;;19.85
67509;BMP280;54354;44.724;11.284;2023-05-07T01:05:04;101464.16;;;19.82
67509;BMP280;54354;44.724;11.284;2023-05-07T01:07:31;101454.31;;;19.79
67509;BMP280;54354;44.724;11.284;2023-05-07T01:09:58;101456.41;;;19.75
67509;BMP280;54354;44.724;11.284;2023-05-07T01:12:24;101460.47;;;19.71
67509;BMP280;54354;44.724;11.284;2023-05-07T01:14:50;101469.44;;;19.68
67509;BMP280;54354;44.724;11.284;2023-05-07T01:17:17;101465.13;;;19.61
67509;BMP280;54354;44.724;11.284;2023-05-07T01:19:44;101466.63;;;19.62
67509;BMP280;54354;44.724;11.284;2023-05-07T01:22:10;101458.25;;;19.60
67509;BMP280;54354;44.724;11.284;2023-05-07T01:24:48;101460.66;;;19.58
67509;BMP280;54354;44.724;11.284;2023-05-07T01:27:15;101467.38;;;19.53
67509;BMP280;54354;44.724;11.284;2023-05-07T01:29:41;101472.44;;;19.51
67509;BMP280;54354;44.724;11.284;2023-05-07T01:32:07;101470.66;;;19.48
67509;BMP280;54354;44.724;11.284;2023-05-07T01:34:34;101481.88;;;19.47
67509;BMP280;54354;44.724;11.284;2023-05-07T01:37:01;101478.47;;;19.46
67509;BMP280;54354;44.724;11.284;2023-05-07T01:39:29;101476.94;;;19.45
67509;BMP280;54354;44.724;11.284;2023-05-07T01:41:55;101473.97;;;19.43
67509;BMP280;54354;44.724;11.284;2023-05-07T01:44:23;101470.69;;;19.39
67509;BMP280;54354;44.724;11.284;2023-05-07T01:46:49;101463.81;;;19.38
67509;BMP280;54354;44.724;11.284;2023-05-07T01:49:16;101470.41;;;19.37
67509;BMP280;54354;44.724;11.284;2023-05-07T01:51:42;101466.66;;;19.35
67509;BMP280;54354;44.724;11.284;2023-05-07T01:54:08;101465.91;;;19.34
67509;BMP280;54354;44.724;11.284;2023-05-07T01:56:34;101462.47;;;19.34
67509;BMP280;54354;44.724;11.284;2023-05-07T01:59:00;101465.16;;;19.34
67509;BMP280;54354;44.724;11.284;2023-05-07T02:01:28;101468.31;;;19.32
67509;BMP280;54354;44.724;11.284;2023-05-07T02:03:54;101469.94;;;19.29
67509;BMP280;54354;44.724;11.284;2023-05-07T02:06:23;101477.25;;;19.29
67509;BMP280;54354;44.724;11.284;2023-05-07T02:08:51;101475.47;;;19.26
67509;BMP280;54354;44.724;11.284;2023-05-07T02:11:17;101471.16;;;19.19
67509;BMP280;54354;44.724;11.284;2023-05-07T02:13:42;101486.22;;;19.17
67509;BMP280;54354;44.724;11.284;2023-05-07T02:16:08;101484.44;;;19.14
67509;BMP280;54354;44.724;11.284;2023-05-07T02:18:34;101476.53;;;19.10
67509;BMP280;54354;44.724;11.284;2023-05-07T02:21:00;101483.81;;;19.10
67509;BMP280;54354;44.724;11.284;2023-05-07T02:23:26;101484.28;;;19.08
67509;BMP280;54354;44.724;11.284;2023-05-07T02:25:51;101485.03;;;19.09
67509;BMP280;54354;44.724;11.284;2023-05-07T02:28:18;101483.53;;;19.08
67509;BMP280;54354;44.724;11.284;2023-05-07T02:30:49;101484.69;;;19.07
67509;BMP280;54354;44.724;11.284;2023-05-07T02:33:16;101476.81;;;19.03
67509;BMP280;54354;44.724;11.284;2023-05-07T02:35:41;101473.09;;;19.00
67509;BMP280;54354;44.724;11.284;2023-05-07T02:38:07;101474.28;;;18.99
67509;BMP280;54354;44.724;11.284;2023-05-07T02:40:36;101470.53;;;18.97
67509;BMP280;54354;44.724;11.284;2023-05-07T02:43:04;101472.94;;;18.95
67509;BMP280;54354;44.724;11.284;2023-05-07T02:45:32;101462.63;;;18.93
67509;BMP280;54354;44.724;11.284;2023-05-07T02:47:58;101469.19;;;18.92
67509;BMP280;54354;44.724;11.284;2023-05-07T02:50:24;101458.19;;;18.90
67509;BMP280;54354;44.724;11.284;2023-05-07T02:52:50;101453.72;;;18.87
67509;BMP280;54354;44.724;11.284;2023-05-07T02:55:16;101462.47;;;18.88
67509;BMP280;54354;44.724;11.284;2023-05-07T02:57:42;101462.06;;;18.89
67509;BMP280;54354;44.724;11.284;2023-05-07T03:00:12;101454.44;;;18.88
67509;BMP280;54354;44.724;11.284;2023-05-07T03:02:41;101454.44;;;18.88
67509;BMP280;54354;44.724;11.284;2023-05-07T03:05:07;101456.41;;;18.87
67509;BMP280;54354;44.724;11.284;2023-05-07T03:07:34;101452.66;;;18.85
67509;BMP280;54354;44.724;11.284;2023-05-07T03:09:59;101457.69;;;18.83
67509;BMP280;54354;44.724;11.284;2023-05-07T03:12:25;101459.66;;;18.82
67509;BMP280;54354;44.724;11.284;2023-05-07T03:14:50;101473.78;;;18.83
67509;BMP280;54354;44.724;11.284;2023-05-07T03:17:16;101464.28;;;18.82
67509;BMP280;54354;44.724;11.284;2023-05-07T03:19:42;101469.47;;;18.76
67509;BMP280;54354;44.724;11.284;2023-05-07T03:22:07;101475.00;;;18.73
67509;BMP280;54354;44.724;11.284;2023-05-07T03:24:33;101470.81;;;18.71
67509;BMP280;54354;44.724;11.284;2023-05-07T03:26:59;101472.31;;;18.73
67509;BMP280;54354;44.724;11.284;2023-05-07T03:29:26;101476.50;;;18.74
67509;BMP280;54354;44.724;11.284;2023-05-07T03:31:52;101482.16;;;18.76
67509;BMP280;54354;44.724;11.284;2023-05-07T03:34:17;101479.00;;;18.77
67509;BMP280;54354;44.724;11.284;2023-05-07T03:36:50;101476.03;;;18.75
67509;BMP280;54354;44.724;11.284;2023-05-07T03:39:17;101468.16;;;18.81
67509;BMP280;54354;44.724;11.284;2023-05-07T03:41:43;101482.00;;;18.79
67509;BMP280;54354;44.724;11.284;2023-05-07T03:44:08;101480.22;;;18.76
67509;BMP280;54354;44.724;11.284;2023-05-07T03:46:34;101477.69;;;18.73
67509;BMP280;54354;44.724;11.284;2023-05-07T03:49:00;101481.56;;;18.71
67509;BMP280;54354;44.724;11.284;2023-05-07T03:51:26;101489.16;;;18.73
67509;BMP280;54354;44.724;11.284;2023-05-07T03:53:52;101488.25;;;18.76
67509;BMP280;54354;44.724;11.284;2023-05-07T03:56:23;101480.66;;;18.75
67509;BMP280;54354;44.724;11.284;2023-05-07T03:58:53;101487.66;;;18.72
67509;BMP280;54354;44.724;11.284;2023-05-07T04:01:20;101494.97;;;18.71
67509;BMP280;54354;44.724;11.284;2023-05-07T04:03:46;101488.09;;;18.70
67509;BMP280;54354;44.724;11.284;2023-05-07T04:06:11;101491.09;;;18.73
67509;BMP280;54354;44.724;11.284;2023-05-07T04:08:38;101489.16;;;18.73
67509;BMP280;54354;44.724;11.284;2023-05-07T04:11:05;101492.59;;;18.74
67509;BMP280;54354;44.724;11.284;2023-05-07T04:13:32;101502.13;;;18.75
67509;BMP280;54354;44.724;11.284;2023-05-07T04:16:01;101503.63;;;18.76
67509;BMP280;54354;44.724;11.284;2023-05-07T04:18:27;101511.22;;;18.77
67509;BMP280;54354;44.724;11.284;2023-05-07T04:20:53;101510.06;;;18.78
67509;BMP280;54354;44.724;11.284;2023-05-07T04:23:20;101513.91;;;18.77
67509;BMP280;54354;44.724;11.284;2023-05-07T04:25:45;101521.19;;;18.77
67509;BMP280;54354;44.724;11.284;2023-05-07T04:28:30;101516.88;;;18.79
67509;BMP280;54354;44.724;11.284;2023-05-07T04:30:57;101510.06;;;18.78
67509;BMP280;54354;44.724;11.284;2023-05-07T04:33:23;101515.41;;;18.78
67509;BMP280;54354;44.724;11.284;2023-05-07T04:35:49;101519.28;;;18.77
67509;BMP280;54354;44.724;11.284;2023-05-07T04:38:15;101524.19;;;18.79
67509;BMP280;54354;44.724;11.284;2023-05-07T04:40:41;101519.56;;;18.79
67509;BMP280;54354;44.724;11.284;2023-05-07T04:43:09;101527.63;;;18.79
67509;BMP280;54354;44.724;11.284;2023-05-07T04:45:42;101536.13;;;18.78
67509;BMP280;54354;44.724;11.284;2023-05-07T04:48:09;101537.00;;;18.75
67509;BMP280;54354;44.724;11.284;2023-05-07T04:50:36;101544.75;;;18.73
67509;BMP280;54354;44.724;11.284;2023-05-07T04:53:03;101541.34;;;18.72
67509;BMP280;54354;44.724;11.284;2023-05-07T04:55:30;101537.91;;;18.71
67509;BMP280;54354;44.724;11.284;2023-05-07T04:57:55;101538.31;;;18.70
67509;BMP280;54354;44.724;11.284;2023-05-07T05:00:22;101542.50;;;18.71
67509;BMP280;54354;44.724;11.284;2023-05-07T05:02:49;101547.44;;;18.73
67509;BMP280;54354;44.724;11.284;2023-05-07T05:05:19;101546.25;;;18.74
67509;BMP280;54354;44.724;11.284;2023-05-07T05:07:45;101558.03;;;18.76
67509;BMP280;54354;44.724;11.284;2023-05-07T05:10:11;101557.88;;;18.80
67509;BMP280;54354;44.724;11.284;2023-05-07T05:12:40;101559.66;;;18.83
67509;BMP280;54354;44.724;11.284;2023-05-07T05:15:06;101558.50;;;18.84
67509;BMP280;54354;44.724;11.284;2023-05-07T05:17:32;101564.16;;;18.86
67509;BMP280;54354;44.724;11.284;2023-05-07T05:20:00;101572.84;;;18.90
67509;BMP280;54354;44.724;11.284;2023-05-07T05:22:26;101571.22;;;19.02
67509;BMP280;54354;44.724;11.284;2023-05-07T05:24:52;101568.09;;;19.12
67509;BMP280;54354;44.724;11.284;2023-05-07T05:27:18;101566.94;;;19.22
67509;BMP280;54354;44.724;11.284;2023-05-07T05:29:43;101567.69;;;19.32
67509;BMP280;54354;44.724;11.284;2023-05-07T05:32:09;101567.69;;;19.41
67509;BMP280;54354;44.724;11.284;2023-05-07T05:34:35;101567.97;;;19.52
67509;BMP280;54354;44.724;11.284;2023-05-07T05:37:02;101566.78;;;19.63
67509;BMP280;54354;44.724;11.284;2023-05-07T05:39:27;101564.53;;;19.70
67509;BMP280;54354;44.724;11.284;2023-05-07T05:41:53;101562.91;;;19.73
67509;BMP280;54354;44.724;11.284;2023-05-07T05:44:20;101561.09;;;19.79
67509;BMP280;54354;44.724;11.284;2023-05-07T05:46:45;101558.53;;;19.84
67509;BMP280;54354;44.724;11.284;2023-05-07T05:49:11;101557.03;;;19.93
67509;BMP280;54354;44.724;11.284;2023-05-07T05:51:37;101562.69;;;20.04
67509;BMP280;54354;44.724;11.284;2023-05-07T05:54:03;101567.31;;;20.12
67509;BMP280;54354;44.724;11.284;2023-05-07T05:56:31;101565.00;;;20.20
67509;BMP280;54354;44.724;11.284;2023-05-07T05:58:57;101550.78;;;20.29
67509;BMP280;54354;44.724;11.284;2023-05-07T06:01:24;101556.88;;;20.38
67509;BMP280;54354;44.724;11.284;2023-05-07T06:03:51;101552.66;;;20.47
67509;BMP280;54354;44.724;11.284;2023-05-07T06:06:17;101556.06;;;20.56
67509;BMP280;54354;44.724;11.284;2023-05-07T06:08:43;101561.53;;;20.71
67509;BMP280;54354;44.724;11.284;2023-05-07T06:11:12;101563.06;;;20.87
67509;BMP280;54354;44.724;11.284;2023-05-07T06:13:40;101561.69;;;21.06
67509;BMP280;54354;44.724;11.284;2023-05-07T06:16:06;101558.59;;;21.22
67509;BMP280;54354;44.724;11.284;2023-05-07T06:18:32;101566.34;;;21.29
67509;BMP280;54354;44.724;11.284;2023-05-07T06:20:58;101566.78;;;21.28
67509;BMP280;54354;44.724;11.284;2023-05-07T06:23:27;101570.16;;;21.38
67509;BMP280;54354;44.724;11.284;2023-05-07T06:25:52;101570.91;;;21.53
67509;BMP280;54354;44.724;11.284;2023-05-07T06:28:22;101565.53;;;21.68
67509;BMP280;54354;44.724;11.284;2023-05-07T06:30:48;101570.38;;;21.78
67509;BMP280;54354;44.724;11.284;2023-05-07T06:33:18;101567.91;;;21.95
67509;BMP280;54354;44.724;11.284;2023-05-07T06:35:45;101576.28;;;22.12
67509;BMP280;54354;44.724;11.284;2023-05-07T06:38:11;101581.63;;;22.27
67509;BMP280;54354;44.724;11.284;2023-05-07T06:40:38;101580.00;;;22.50
67509;BMP280;54354;44.724;11.284;2023-05-07T06:43:04;101577.34;;;22.96
67509;BMP280;54354;44.724;11.284;2023-05-07T06:45:46;101580.28;;;24.02
67509;BMP280;54354;44.724;11.284;2023-05-07T06:48:13;101572.81;;;25.10
67509;BMP280;54354;44.724;11.284;2023-05-07T06:50:49;101582.03;;;26.26
67509;BMP280;54354;44.724;11.284;2023-05-07T06:53:15;101587.63;;;27.27
67509;BMP280;54354;44.724;11.284;2023-05-07T06:55:42;101586.47;;;28.15
67509;BMP280;54354;44.724;11.284;2023-05-07T06:58:11;101582.63;;;28.93
67509;BMP280;54354;44.724;11.284;2023-05-07T07:00:37;101582.09;;;29.53
67509;BMP280;54354;44.724;11.284;2023-05-07T07:03:03;101574.78;;;30.08
67509;BMP280;54354;44.724;11.284;2023-05-07T07:05:29;101570.75;;;30.64
67509;BMP280;54354;44.724;11.284;2023-05-07T07:07:57;101569.34;;;31.20
67509;BMP280;54354;44.724;11.284;2023-05-07T07:10:23;101568.50;;;31.69
67509;BMP280;54354;44.724;11.284;2023-05-07T07:12:50;101569.31;;;32.00
67509;BMP280;54354;44.724;11.284;2023-05-07T07:15:18;101567.34;;;32.15
67509;BMP280;54354;44.724;11.284;2023-05-07T07:17:46;101567.53;;;32.10
67509;BMP280;54354;44.724;11.284;2023-05-07T07:20:12;101578.34;;;32.31
67509;BMP280;54354;44.724;11.284;2023-05-07T07:22:39;101569.56;;;32.62
67509;BMP280;54354;44.724;11.284;2023-05-07T07:25:05;101575.03;;;32.78
67509;BMP280;54354;44.724;11.284;2023-05-07T07:27:31;101577.34;;;33.04
67509;BMP280;54354;44.724;11.284;2023-05-07T07:29:56;101574.50;;;33.42
67509;BMP280;54354;44.724;11.284;2023-05-07T07:32:22;101573.59;;;33.80
67509;BMP280;54354;44.724;11.284;2023-05-07T07:34:48;101572.94;;;34.21
67509;BMP280;54354;44.724;11.284;2023-05-07T07:37:14;101570.59;;;34.60
67509;BMP280;54354;44.724;11.284;2023-05-07T07:39:40;101563.31;;;34.89
67509;BMP280;54354;44.724;11.284;2023-05-07T07:42:07;101563.84;;;35.05
67509;BMP280;54354;44.724;11.284;2023-05-07T07:44:33;101562.91;;;35.37
67509;BMP280;54354;44.724;11.284;2023-05-07T07:47:04;101558.56;;;35.61
67509;BMP280;54354;44.724;11.284;2023-05-07T07:49:30;101568.72;;;36.04
67509;BMP280;54354;44.724;11.284;2023-05-07T07:51:59;101566.34;;;36.47
67509;BMP280;54354;44.724;11.284;2023-05-07T07:54:26;101568.50;;;36.77
67509;BMP280;54354;44.724;11.284;2023-05-07T07:56:52;101569.19;;;37.07
67509;BMP280;54354;44.724;11.284;2023-05-07T07:59:17;101567.38;;;37.31
67509;BMP280;54354;44.724;11.284;2023-05-07T08:01:45;101564.56;;;37.50
67509;BMP280;54354;44.724;11.284;2023-05-07T08:04:10;101576.34;;;37.81
67509;BMP280;54354;44.724;11.284;2023-05-07T08:06:39;101571.53;;;37.82
67509;BMP280;54354;44.724;11.284;2023-05-07T08:09:07;101568.94;;;37.43
67509;BMP280;54354;44.724;11.284;2023-05-07T08:11:33;101573.13;;;37.04
67509;BMP280;54354;44.724;11.284;2023-05-07T08:13:59;101568.94;;;36.74
67509;BMP280;54354;44.724;11.284;2023-05-07T08:16:26;101568.63;;;36.50
67509;BMP280;54354;44.724;11.284;2023-05-07T08:18:52;101581.63;;;36.02
67509;BMP280;54354;44.724;11.284;2023-05-07T08:21:18;101577.28;;;35.45
67509;BMP280;54354;44.724;11.284;2023-05-07T08:23:43;101578.94;;;35.04
67509;BMP280;54354;44.724;11.284;2023-05-07T08:26:09;101581.75;;;34.96
67509;BMP280;54354;44.724;11.284;2023-05-07T08:28:35;101580.13;;;35.28
67509;BMP280;54354;44.724;11.284;2023-05-07T08:31:01;101579.81;;;35.51
67509;BMP280;54354;44.724;11.284;2023-05-07T08:33:29;101580.19;;;35.20
67509;BMP280;54354;44.724;11.284;2023-05-07T08:35:56;101580.47;;;34.21
67509;BMP280;54354;44.724;11.284;2023-05-07T08:38:23;101589.22;;;33.29
67509;BMP280;54354;44.724;11.284;2023-05-07T08:40:48;101586.75;;;32.71
67509;BMP280;54354;44.724;11.284;2023-05-07T08:43:18;101590.72;;;32.24
67509;BMP280;54354;44.724;11.284;2023-05-07T08:45:45;101590.47;;;31.84
67509;BMP280;54354;44.724;11.284;2023-05-07T08:48:16;101585.03;;;31.48
67509;BMP280;54354;44.724;11.284;2023-05-07T08:50:45;101580.50;;;31.22
67509;BMP280;54354;44.724;11.284;2023-05-07T08:53:11;101582.75;;;31.03
67509;BMP280;54354;44.724;11.284;2023-05-07T08:55:39;101579.13;;;30.79
67509;BMP280;54354;44.724;11.284;2023-05-07T08:58:05;101577.22;;;30.53
67509;BMP280;54354;44.724;11.284;2023-05-07T09:00:32;101576.50;;;30.32
67509;BMP280;54354;44.724;11.284;2023-05-07T09:03:00;101576.97;;;30.10
67509;BMP280;54354;44.724;11.284;2023-05-07T09:05:26;101580.19;;;29.87
67509;BMP280;54354;44.724;11.284;2023-05-07T09:07:52;101585.88;;;29.76
67509;BMP280;54354;44.724;11.284;2023-05-07T09:10:20;101575.56;;;29.69
67509;BMP280;54354;44.724;11.284;2023-05-07T09:12:47;101576.94;;;29.62
67509;BMP280;54354;44.724;11.284;2023-05-07T09:15:14;101582.19;;;29.47
67509;BMP280;54354;44.724;11.284;2023-05-07T09:17:40;101572.75;;;29.35
67509;BMP280;54354;44.724;11.284;2023-05-07T09:20:07;101576.81;;;29.28
67509;BMP280;54354;44.724;11.284;2023-05-07T09:22:36;101575.03;;;29.18
67509;BMP280;54354;44.724;11.284;2023-05-07T09:25:08;101565.03;;;29.07
67509;BMP280;54354;44.724;11.284;2023-05-07T09:27:36;101562.94;;;29.00
67509;BMP280;54354;44.724;11.284;2023-05-07T09:30:04;101565.81;;;28.89
67509;BMP280;54354;44.724;11.284;2023-05-07T09:32:34;101559.84;;;28.77
67509;BMP280;54354;44.724;11.284;2023-05-07T09:35:00;101559.84;;;28.77
67509;BMP280;54354;44.724;11.284;2023-05-07T09:37:26;101570.91;;;28.66
67509;BMP280;54354;44.724;11.284;2023-05-07T09:39:52;101561.13;;;28.57
67509;BMP280;54354;44.724;11.284;2023-05-07T09:42:25;101562.81;;;28.60
67509;BMP280;54354;44.724;11.284;2023-05-07T09:44:54;101562.22;;;28.68
67509;BMP280;54354;44.724;11.284;2023-05-07T09:47:24;101567.88;;;28.70
67509;BMP280;54354;44.724;11.284;2023-05-07T09:49:55;101561.88;;;28.58
67509;BMP280;54354;44.724;11.284;2023-05-07T09:52:21;101561.34;;;28.59
67509;BMP280;54354;44.724;11.284;2023-05-07T09:54:52;101563.25;;;28.64
67509;BMP280;54354;44.724;11.284;2023-05-07T09:57:22;101564.84;;;28.73
67509;BMP280;54354;44.724;11.284;2023-05-07T09:59:53;101557.53;;;28.81
67509;BMP280;54354;44.724;11.284;2023-05-07T10:02:20;101551.88;;;28.79
67509;BMP280;54354;44.724;11.284;2023-05-07T10:04:52;101558.56;;;28.78
67509;BMP280;54354;44.724;11.284;2023-05-07T10:07:23;101549.84;;;28.80
67509;BMP280;54354;44.724;11.284;2023-05-07T10:09:53;101542.97;;;28.79
67509;BMP280;54354;44.724;11.284;2023-05-07T10:12:27;101545.16;;;28.80
67509;BMP280;54354;44.724;11.284;2023-05-07T10:14:54;101547.88;;;28.80
67509;BMP280;54354;44.724;11.284;2023-05-07T10:17:21;101549.22;;;28.74
67509;BMP280;54354;44.724;11.284;2023-05-07T10:19:49;101543.66;;;28.66
67509;BMP280;54354;44.724;11.284;2023-05-07T10:22:18;101536.28;;;28.61
67509;BMP280;54354;44.724;11.284;2023-05-07T10:24:49;101534.31;;;28.61
67509;BMP280;54354;44.724;11.284;2023-05-07T10:27:23;101534.53;;;28.63
67509;BMP280;54354;44.724;11.284;2023-05-07T10:32:53;101529.84;;;28.77
67509;BMP280;54354;44.724;11.284;2023-05-07T10:35:30;101529.44;;;28.86
67509;BMP280;54354;44.724;11.284;2023-05-07T10:37:59;101526.63;;;28.92
67509;BMP280;54354;44.724;11.284;2023-05-07T10:40:27;101523.38;;;28.93
67509;BMP280;54354;44.724;11.284;2023-05-07T10:42:59;101522.75;;;28.87
67509;BMP280;54354;44.724;11.284;2023-05-07T10:45:28;101523.56;;;28.82
67509;BMP280;54354;44.724;11.284;2023-05-07T10:48:14;101534.66;;;28.71
67509;BMP280;54354;44.724;11.284;2023-05-07T10:50:43;101531.50;;;28.67
67509;BMP280;54354;44.724;11.284;2023-05-07T10:56:31;101531.97;;;28.52
67509;BMP280;54354;44.724;11.284;2023-05-07T10:58:43;101525.47;;;28.55
67509;BMP280;54354;44.724;11.284;2023-05-07T11:01:49;101535.88;;;28.57
67509;BMP280;54354;44.724;11.284;2023-05-07T11:04:15;101531.06;;;28.63
67509;BMP280;54354;44.724;11.284;2023-05-07T11:15:09;101521.09;;;28.33
67509;BMP280;54354;44.724;11.284;2023-05-07T11:17:55;101522.91;;;28.25
67509;BMP280;54354;44.724;11.284;2023-05-07T11:20:58;101520.09;;;28.18
67509;BMP280;54354;44.724;11.284;2023-05-07T11:26:29;101510.22;;;28.15
67509;BMP280;54354;44.724;11.284;2023-05-07T11:28:57;101505.50;;;28.15
67509;BMP280;54354;44.724;11.284;2023-05-07T11:31:26;101508.00;;;28.13
67509;BMP280;54354;44.724;11.284;2023-05-07T11:33:54;101506.72;;;28.14
67509;BMP280;54354;44.724;11.284;2023-05-07T11:36:22;101501.75;;;28.18
67509;BMP280;54354;44.724;11.284;2023-05-07T11:38:52;101504.41;;;28.24
67509;BMP280;54354;44.724;11.284;2023-05-07T11:41:17;101506.81;;;28.27
67509;BMP280;54354;44.724;11.284;2023-05-07T11:43:58;101501.56;;;28.29
67509;BMP280;54354;44.724;11.284;2023-05-07T11:46:24;101500.09;;;28.28
67509;BMP280;54354;44.724;11.284;2023-05-07T11:48:50;101503.56;;;28.29
67509;BMP280;54354;44.724;11.284;2023-05-07T11:51:34;101506.81;;;28.27
67509;BMP280;54354;44.724;11.284;2023-05-07T11:53:59;101508.72;;;28.32
67509;BMP280;54354;44.724;11.284;2023-05-07T11:56:25;101503.72;;;28.37
67509;BMP280;54354;44.724;11.284;2023-05-07T11:58:53;101506.84;;;28.41
67509;BMP280;54354;44.724;11.284;2023-05-07T12:01:19;101506.16;;;28.40
67509;BMP280;54354;44.724;11.284;2023-05-07T12:03:46;101497.63;;;28.44
67509;BMP280;54354;44.724;11.284;2023-05-07T12:06:14;101491.69;;;28.45
67509;BMP280;54354;44.724;11.284;2023-05-07T12:08:41;101492.19;;;28.44
67509;BMP280;54354;44.724;11.284;2023-05-07T12:11:08;101493.03;;;28.39
67509;BMP280;54354;44.724;11.284;2023-05-07T12:13:35;101492.53;;;28.40
67509;BMP280;54354;44.724;11.284;2023-05-07T12:16:01;101496.19;;;28.43
67509;BMP280;54354;44.724;11.284;2023-05-07T12:18:28;101500.31;;;28.49
67509;BMP280;54354;44.724;11.284;2023-05-07T12:20:55;101502.59;;;28.45
67509;BMP280;54354;44.724;11.284;2023-05-07T12:23:21;101493.47;;;28.43
67509;BMP280;54354;44.724;11.284;2023-05-07T12:25:47;101497.72;;;28.38
67509;BMP280;54354;44.724;11.284;2023-05-07T12:28:17;101494.06;;;28.36
67509;BMP280;54354;44.724;11.284;2023-05-07T12:30:47;101492.56;;;28.34
67509;BMP280;54354;44.724;11.284;2023-05-07T12:33:23;101486.63;;;28.36
67509;BMP280;54354;44.724;11.284;2023-05-07T12:35:49;101490.00;;;28.42
67509;BMP280;54354;44.724;11.284;2023-05-07T12:38:17;101487.78;;;28.41
67509;BMP280;54354;44.724;11.284;2023-05-07T12:40:47;101489.56;;;28.38
67509;BMP280;54354;44.724;11.284;2023-05-07T12:43:20;101483.19;;;28.36
67509;BMP280;54354;44.724;11.284;2023-05-07T12:45:48;101484.09;;;28.38
67509;BMP280;54354;44.724;11.284;2023-05-07T12:48:14;101487.06;;;28.40
67509;BMP280;54354;44.724;11.284;2023-05-07T12:50:40;101481.28;;;28.44
67509;BMP280;54354;44.724;11.284;2023-05-07T12:53:07;101473.06;;;28.49
67509;BMP280;54354;44.724;11.284;2023-05-07T12:55:50;101477.69;;;28.54
67509;BMP280;54354;44.724;11.284;2023-05-07T12:58:18;101477.38;;;28.58
67509;BMP280;54354;44.724;11.284;2023-05-07T13:00:44;101476.34;;;28.61
67509;BMP280;54354;44.724;11.284;2023-05-07T13:03:10;101476.56;;;28.63
67509;BMP280;54354;44.724;11.284;2023-05-07T13:05:36;101471.00;;;28.69
67509;BMP280;54354;44.724;11.284;2023-05-07T13:08:02;101462.53;;;28.72
67509;BMP280;54354;44.724;11.284;2023-05-07T13:10:27;101462.94;;;28.76
67509;BMP280;54354;44.724;11.284;2023-05-07T13:12:54;101459.38;;;28.81
67509;BMP280;54354;44.724;11.284;2023-05-07T13:15:19;101462.53;;;28.85
67509;BMP280;54354;44.724;11.284;2023-05-07T13:17:45;101462.00;;;28.87
67509;BMP280;54354;44.724;11.284;2023-05-07T13:20:11;101463.38;;;28.93
67509;BMP280;54354;44.724;11.284;2023-05-07T13:22:38;101460.25;;;29.03
67509;BMP280;54354;44.724;11.284;2023-05-07T13:25:04;101455.00;;;29.05
67509;BMP280;54354;44.724;11.284;2023-05-07T13:27:31;101460.66;;;29.07
67509;BMP280;54354;44.724;11.284;2023-05-07T13:29:56;101449.97;;;29.09
67509;BMP280;54354;44.724;11.284;2023-05-07T13:32:22;101453.22;;;29.07
67509;BMP280;54354;44.724;11.284;2023-05-07T13:34:48;101452.47;;;29.07
67509;BMP280;54354;44.724;11.284;2023-05-07T13:37:13;101451.22;;;29.08
67509;BMP280;54354;44.724;11.284;2023-05-07T13:39:39;101447.69;;;29.13
67509;BMP280;54354;44.724;11.284;2023-05-07T13:42:06;101445.97;;;29.23
67509;BMP280;54354;44.724;11.284;2023-05-07T13:44:31;101438.63;;;29.31
67509;BMP280;54354;44.724;11.284;2023-05-07T13:46:57;101439.78;;;29.36
67509;BMP280;54354;44.724;11.284;2023-05-07T13:49:22;101436.09;;;29.33
67509;BMP280;54354;44.724;11.284;2023-05-07T13:51:48;101430.22;;;29.29
67509;BMP280;54354;44.724;11.284;2023-05-07T13:54:13;101437.47;;;29.26
67509;BMP280;54354;44.724;11.284;2023-05-07T13:56:39;101433.69;;;29.29
67509;BMP280;54354;44.724;11.284;2023-05-07T13:59:05;101429.91;;;29.33
67509;BMP280;54354;44.724;11.284;2023-05-07T14:01:30;101429.38;;;29.34
67509;BMP280;54354;44.724;11.284;2023-05-07T14:03:56;101418.69;;;29.36